Broad Blunsdon, United Kingdom
Current Conditions -  °F | °C
As of 10:21 AM on Sunday 21 Dec 2014 (Local Time) from EGVA Reporting Station
Light Rain Light Rain  
Wind Chill: 38°   Ceiling: 500
Heat Index: 45°   Visibility: 3mi
Dew Point: 45°   Wind: 13mph
Humidity: 100%   Direction: 230°SW
Pressure: 30.32"   Gusts: NA
Location:  51.61°N, 1.78°W
Report Text: EGVA 211021Z AUTO 23011KT 4800 R27/1300 -RA BR BKN005 OVC011 07/07 A3032 RMK AO2 RAE0959B1014DZB0959E1014
Loading
Personal Weather Stations






























Interactive Weather Map New forecast layout! Learn more

10-Day Weather Forecast

Advertisements
Track Severe Weather on mobile